sensor_id;sensor_type;location;lat;lon;timestamp;P1;durP1;ratioP1;P2;durP2;ratioP2
49870;SDS011;35767;52.322;9.122;2024-01-30T10:54:30;9.10;;;6.93;;
49870;SDS011;35767;52.322;9.122;2024-01-30T10:57:33;10.00;;;7.82;;
49870;SDS011;35767;52.322;9.122;2024-01-30T11:00:35;9.30;;;7.70;;
49870;SDS011;35767;52.322;9.122;2024-01-30T11:06:41;8.73;;;7.83;;
49870;SDS011;35767;52.322;9.122;2024-01-30T11:09:50;8.90;;;8.00;;
49870;SDS011;35767;52.322;9.122;2024-01-30T11:15:53;10.98;;;7.78;;
49870;SDS011;35767;52.322;9.122;2024-01-30T11:18:55;10.05;;;8.18;;
49870;SDS011;35767;52.322;9.122;2024-01-30T11:22:03;12.43;;;7.90;;
49870;SDS011;35767;52.322;9.122;2024-01-30T11:25:06;9.52;;;7.60;;
49870;SDS011;35767;52.322;9.122;2024-01-30T11:28:13;8.82;;;7.32;;
49870;SDS011;35767;52.322;9.122;2024-01-30T11:31:18;9.95;;;7.70;;
49870;SDS011;35767;52.322;9.122;2024-01-30T11:34:20;9.98;;;7.07;;
49870;SDS011;35767;52.322;9.122;2024-01-30T11:37:24;8.57;;;7.00;;
49870;SDS011;35767;52.322;9.122;2024-01-30T11:40:27;7.78;;;6.95;;
49870;SDS011;35767;52.322;9.122;2024-01-30T11:43:29;7.72;;;7.00;;
49870;SDS011;35767;52.322;9.122;2024-01-30T11:46:31;8.88;;;7.05;;
49870;SDS011;35767;52.322;9.122;2024-01-30T11:49:33;11.25;;;7.55;;
49870;SDS011;35767;52.322;9.122;2024-01-30T11:52:36;8.65;;;7.38;;
49870;SDS011;35767;52.322;9.122;2024-01-30T11:55:38;9.43;;;7.45;;
49870;SDS011;35767;52.322;9.122;2024-01-30T11:58:42;7.82;;;6.82;;
49870;SDS011;35767;52.322;9.122;2024-01-30T12:01:44;10.32;;;7.03;;
49870;SDS011;35767;52.322;9.122;2024-01-30T12:07:48;8.73;;;7.30;;
49870;SDS011;35767;52.322;9.122;2024-01-30T12:10:55;12.00;;;7.75;;
49870;SDS011;35767;52.322;9.122;2024-01-30T12:13:57;8.20;;;6.53;;
49870;SDS011;35767;52.322;9.122;2024-01-30T12:16:58;8.02;;;7.20;;
49870;SDS011;35767;52.322;9.122;2024-01-30T12:20:03;9.55;;;7.28;;
49870;SDS011;35767;52.322;9.122;2024-01-30T12:23:07;10.98;;;7.95;;
49870;SDS011;35767;52.322;9.122;2024-01-30T12:26:10;13.23;;;8.10;;
49870;SDS011;35767;52.322;9.122;2024-01-30T12:29:11;8.05;;;7.25;;
49870;SDS011;35767;52.322;9.122;2024-01-30T12:32:15;9.55;;;7.97;;
49870;SDS011;35767;52.322;9.122;2024-01-30T12:35:17;10.23;;;7.60;;
49870;SDS011;35767;52.322;9.122;2024-01-30T12:38:21;14.07;;;8.05;;
49870;SDS011;35767;52.322;9.122;2024-01-30T12:41:23;8.00;;;6.97;;
49870;SDS011;35767;52.322;9.122;2024-01-30T12:44:24;28.10;;;23.15;;
49870;SDS011;35767;52.322;9.122;2024-01-30T12:50:27;8.80;;;7.77;;
49870;SDS011;35767;52.322;9.122;2024-01-30T12:53:30;7.30;;;6.60;;
49870;SDS011;35767;52.322;9.122;2024-01-30T12:56:32;9.38;;;6.40;;
49870;SDS011;35767;52.322;9.122;2024-01-30T12:59:33;8.70;;;6.53;;
49870;SDS011;35767;52.322;9.122;2024-01-30T13:02:35;6.80;;;6.15;;
49870;SDS011;35767;52.322;9.122;2024-01-30T13:05:37;7.75;;;6.00;;
49870;SDS011;35767;52.322;9.122;2024-01-30T13:08:40;7.43;;;5.43;;
49870;SDS011;35767;52.322;9.122;2024-01-30T13:11:42;6.88;;;5.22;;
49870;SDS011;35767;52.322;9.122;2024-01-30T13:14:43;7.10;;;6.40;;
49870;SDS011;35767;52.322;9.122;2024-01-30T13:17:45;7.70;;;5.97;;
49870;SDS011;35767;52.322;9.122;2024-01-30T13:20:46;6.45;;;5.38;;
49870;SDS011;35767;52.322;9.122;2024-01-30T13:23:49;8.88;;;5.78;;
49870;SDS011;35767;52.322;9.122;2024-01-30T13:26:51;6.05;;;5.55;;
49870;SDS011;35767;52.322;9.122;2024-01-30T13:29:52;10.18;;;6.07;;
49870;SDS011;35767;52.322;9.122;2024-01-30T13:32:54;6.15;;;5.60;;
49870;SDS011;35767;52.322;9.122;2024-01-30T13:35:56;6.55;;;5.47;;
49870;SDS011;35767;52.322;9.122;2024-01-30T13:38:58;8.13;;;5.50;;
49870;SDS011;35767;52.322;9.122;2024-01-30T13:42:00;5.50;;;4.90;;
49870;SDS011;35767;52.322;9.122;2024-01-30T13:45:02;9.27;;;6.15;;
49870;SDS011;35767;52.322;9.122;2024-01-30T13:48:04;7.07;;;5.90;;
49870;SDS011;35767;52.322;9.122;2024-01-30T13:51:07;6.85;;;5.63;;
49870;SDS011;35767;52.322;9.122;2024-01-30T13:54:10;9.00;;;5.80;;
49870;SDS011;35767;52.322;9.122;2024-01-30T13:57:11;7.10;;;6.13;;
49870;SDS011;35767;52.322;9.122;2024-01-30T14:00:14;8.95;;;5.95;;
49870;SDS011;35767;52.322;9.122;2024-01-30T14:03:16;8.45;;;6.00;;
49870;SDS011;35767;52.322;9.122;2024-01-30T14:06:17;6.97;;;6.05;;
49870;SDS011;35767;52.322;9.122;2024-01-30T14:09:21;8.55;;;5.90;;
49870;SDS011;35767;52.322;9.122;2024-01-30T14:12:22;9.07;;;6.15;;
49870;SDS011;35767;52.322;9.122;2024-01-30T14:15:24;9.23;;;6.82;;
49870;SDS011;35767;52.322;9.122;2024-01-30T14:18:30;11.75;;;7.15;;
49870;SDS011;35767;52.322;9.122;2024-01-30T14:21:31;9.02;;;6.38;;
49870;SDS011;35767;52.322;9.122;2024-01-30T14:24:34;9.38;;;6.53;;
49870;SDS011;35767;52.322;9.122;2024-01-30T14:27:36;14.23;;;8.52;;
49870;SDS011;35767;52.322;9.122;2024-01-30T14:33:41;10.33;;;7.70;;
49870;SDS011;35767;52.322;9.122;2024-01-30T14:36:42;12.82;;;8.00;;
49870;SDS011;35767;52.322;9.122;2024-01-30T14:39:46;10.90;;;7.47;;
49870;SDS011;35767;52.322;9.122;2024-01-30T14:42:48;11.38;;;7.65;;
49870;SDS011;35767;52.322;9.122;2024-01-30T14:48:51;16.15;;;8.73;;
49870;SDS011;35767;52.322;9.122;2024-01-30T14:51:53;13.60;;;7.68;;
49870;SDS011;35767;52.322;9.122;2024-01-30T14:54:56;11.88;;;8.25;;
49870;SDS011;35767;52.322;9.122;2024-01-30T14:58:01;19.42;;;9.27;;
49870;SDS011;35767;52.322;9.122;2024-01-30T15:01:03;15.95;;;8.93;;
49870;SDS011;35767;52.322;9.122;2024-01-30T15:07:06;17.42;;;8.35;;
49870;SDS011;35767;52.322;9.122;2024-01-30T15:13:11;8.95;;;8.05;;
49870;SDS011;35767;52.322;9.122;2024-01-30T15:16:13;13.48;;;8.63;;
49870;SDS011;35767;52.322;9.122;2024-01-30T15:19:15;14.80;;;8.85;;
49870;SDS011;35767;52.322;9.122;2024-01-30T15:25:20;9.50;;;8.10;;
49870;SDS011;35767;52.322;9.122;2024-01-30T15:28:33;16.17;;;9.27;;
49870;SDS011;35767;52.322;9.122;2024-01-30T15:31:35;14.07;;;9.25;;
49870;SDS011;35767;52.322;9.122;2024-01-30T15:34:37;10.13;;;8.23;;
49870;SDS011;35767;52.322;9.122;2024-01-30T15:37:39;16.05;;;8.73;;
49870;SDS011;35767;52.322;9.122;2024-01-30T15:40:42;10.43;;;8.48;;
49870;SDS011;35767;52.322;9.122;2024-01-30T15:43:43;17.60;;;10.05;;
49870;SDS011;35767;52.322;9.122;2024-01-30T15:46:45;11.65;;;8.90;;
49870;SDS011;35767;52.322;9.122;2024-01-30T15:49:46;9.88;;;8.85;;
49870;SDS011;35767;52.322;9.122;2024-01-30T15:55:51;9.70;;;8.57;;
49870;SDS011;35767;52.322;9.122;2024-01-30T15:58:53;12.80;;;9.07;;
49870;SDS011;35767;52.322;9.122;2024-01-30T16:01:54;18.48;;;9.77;;
49870;SDS011;35767;52.322;9.122;2024-01-30T16:04:56;10.35;;;9.32;;
49870;SDS011;35767;52.322;9.122;2024-01-30T16:07:58;12.00;;;8.82;;
49870;SDS011;35767;52.322;9.122;2024-01-30T16:11:02;12.57;;;8.70;;
49870;SDS011;35767;52.322;9.122;2024-01-30T16:14:04;18.05;;;8.93;;
49870;SDS011;35767;52.322;9.122;2024-01-30T16:17:06;9.70;;;7.60;;
49870;SDS011;35767;52.322;9.122;2024-01-30T16:20:07;8.85;;;7.95;;
49870;SDS011;35767;52.322;9.122;2024-01-30T16:23:10;11.68;;;8.23;;
49870;SDS011;35767;52.322;9.122;2024-01-30T16:26:14;9.80;;;7.32;;
49870;SDS011;35767;52.322;9.122;2024-01-30T16:29:15;10.48;;;7.75;;
49870;SDS011;35767;52.322;9.122;2024-01-30T16:32:18;9.88;;;7.53;;
49870;SDS011;35767;52.322;9.122;2024-01-30T16:35:23;10.57;;;8.05;;
49870;SDS011;35767;52.322;9.122;2024-01-30T16:38:44;9.57;;;7.07;;
49870;SDS011;35767;52.322;9.122;2024-01-30T16:41:47;13.73;;;7.32;;
49870;SDS011;35767;52.322;9.122;2024-01-30T16:44:49;9.02;;;7.00;;
49870;SDS011;35767;52.322;9.122;2024-01-30T16:47:50;10.38;;;7.88;;
49870;SDS011;35767;52.322;9.122;2024-01-30T16:50:52;10.00;;;8.05;;
49870;SDS011;35767;52.322;9.122;2024-01-30T16:53:54;9.88;;;7.80;;
49870;SDS011;35767;52.322;9.122;2024-01-30T16:56:56;8.95;;;7.22;;
49870;SDS011;35767;52.322;9.122;2024-01-30T16:59:58;8.90;;;7.95;;
49870;SDS011;35767;52.322;9.122;2024-01-30T17:03:00;11.23;;;8.05;;
49870;SDS011;35767;52.322;9.122;2024-01-30T17:06:05;12.00;;;8.52;;
49870;SDS011;35767;52.322;9.122;2024-01-30T17:09:07;9.57;;;8.65;;
49870;SDS011;35767;52.322;9.122;2024-01-30T17:12:10;14.93;;;8.18;;
49870;SDS011;35767;52.322;9.122;2024-01-30T17:15:11;10.95;;;8.43;;
49870;SDS011;35767;52.322;9.122;2024-01-30T17:18:13;10.35;;;8.30;;
49870;SDS011;35767;52.322;9.122;2024-01-30T17:21:15;11.15;;;9.98;;
49870;SDS011;35767;52.322;9.122;2024-01-30T17:24:17;12.48;;;8.93;;
49870;SDS011;35767;52.322;9.122;2024-01-30T17:27:22;10.05;;;8.60;;
49870;SDS011;35767;52.322;9.122;2024-01-30T17:30:24;13.40;;;8.95;;
49870;SDS011;35767;52.322;9.122;2024-01-30T17:33:25;9.75;;;8.63;;
49870;SDS011;35767;52.322;9.122;2024-01-30T17:36:28;9.48;;;8.48;;
49870;SDS011;35767;52.322;9.122;2024-01-30T17:39:30;11.77;;;8.85;;
49870;SDS011;35767;52.322;9.122;2024-01-30T17:42:33;10.05;;;7.97;;
49870;SDS011;35767;52.322;9.122;2024-01-30T17:45:35;10.63;;;9.05;;
49870;SDS011;35767;52.322;9.122;2024-01-30T17:48:37;9.40;;;7.65;;
49870;SDS011;35767;52.322;9.122;2024-01-30T17:51:38;11.73;;;7.63;;
49870;SDS011;35767;52.322;9.122;2024-01-30T17:57:43;9.32;;;5.82;;
49870;SDS011;35767;52.322;9.122;2024-01-30T18:00:45;6.72;;;6.05;;
49870;SDS011;35767;52.322;9.122;2024-01-30T18:03:47;7.22;;;6.03;;
49870;SDS011;35767;52.322;9.122;2024-01-30T18:06:48;9.38;;;6.10;;
49870;SDS011;35767;52.322;9.122;2024-01-30T18:09:50;7.05;;;5.60;;
49870;SDS011;35767;52.322;9.122;2024-01-30T18:12:53;8.57;;;5.40;;
49870;SDS011;35767;52.322;9.122;2024-01-30T18:15:55;7.50;;;5.10;;
49870;SDS011;35767;52.322;9.122;2024-01-30T18:18:58;5.88;;;4.18;;
49870;SDS011;35767;52.322;9.122;2024-01-30T18:25:01;4.97;;;4.20;;
49870;SDS011;35767;52.322;9.122;2024-01-30T18:28:05;6.55;;;4.85;;
49870;SDS011;35767;52.322;9.122;2024-01-30T18:31:07;4.63;;;4.00;;
49870;SDS011;35767;52.322;9.122;2024-01-30T18:34:08;4.88;;;4.40;;
49870;SDS011;35767;52.322;9.122;2024-01-30T18:41:39;5.72;;;4.28;;
49870;SDS011;35767;52.322;9.122;2024-01-30T18:44:42;4.95;;;3.53;;
49870;SDS011;35767;52.322;9.122;2024-01-30T18:47:44;5.60;;;3.45;;
49870;SDS011;35767;52.322;9.122;2024-01-30T18:50:45;3.65;;;3.25;;
49870;SDS011;35767;52.322;9.122;2024-01-30T18:53:47;3.63;;;2.92;;
49870;SDS011;35767;52.322;9.122;2024-01-30T18:56:48;3.75;;;2.75;;
49870;SDS011;35767;52.322;9.122;2024-01-30T18:59:51;3.10;;;2.90;;
49870;SDS011;35767;52.322;9.122;2024-01-30T19:02:53;3.50;;;2.83;;
49870;SDS011;35767;52.322;9.122;2024-01-30T19:05:56;5.10;;;2.67;;
49870;SDS011;35767;52.322;9.122;2024-01-30T19:08:58;3.70;;;3.10;;
49870;SDS011;35767;52.322;9.122;2024-01-30T19:11:59;4.68;;;3.38;;
49870;SDS011;35767;52.322;9.122;2024-01-30T19:15:02;3.97;;;3.22;;
49870;SDS011;35767;52.322;9.122;2024-01-30T19:18:04;5.03;;;3.17;;
49870;SDS011;35767;52.322;9.122;2024-01-30T19:21:06;2.95;;;2.70;;
49870;SDS011;35767;52.322;9.122;2024-01-30T19:24:08;3.58;;;3.00;;
49870;SDS011;35767;52.322;9.122;2024-01-30T19:27:09;4.10;;;3.05;;
49870;SDS011;35767;52.322;9.122;2024-01-30T19:30:12;3.45;;;2.95;;
49870;SDS011;35767;52.322;9.122;2024-01-30T19:33:14;3.40;;;2.65;;
49870;SDS011;35767;52.322;9.122;2024-01-30T19:36:16;3.13;;;2.70;;
49870;SDS011;35767;52.322;9.122;2024-01-30T19:39:19;3.35;;;2.90;;
49870;SDS011;35767;52.322;9.122;2024-01-30T19:42:21;2.97;;;2.78;;
49870;SDS011;35767;52.322;9.122;2024-01-30T19:45:24;3.25;;;2.83;;
49870;SDS011;35767;52.322;9.122;2024-01-30T19:48:26;2.55;;;2.35;;
49870;SDS011;35767;52.322;9.122;2024-01-30T19:51:27;3.10;;;2.80;;
49870;SDS011;35767;52.322;9.122;2024-01-30T19:54:29;2.75;;;2.38;;
49870;SDS011;35767;52.322;9.122;2024-01-30T19:57:31;3.13;;;2.83;;
49870;SDS011;35767;52.322;9.122;2024-01-30T20:00:34;2.65;;;2.53;;
49870;SDS011;35767;52.322;9.122;2024-01-30T20:03:35;4.07;;;3.22;;
49870;SDS011;35767;52.322;9.122;2024-01-30T20:06:37;3.17;;;2.72;;
49870;SDS011;35767;52.322;9.122;2024-01-30T20:09:38;3.97;;;3.25;;
49870;SDS011;35767;52.322;9.122;2024-01-30T20:12:40;3.60;;;3.30;;
49870;SDS011;35767;52.322;9.122;2024-01-30T20:15:44;3.67;;;3.38;;
49870;SDS011;35767;52.322;9.122;2024-01-30T20:18:45;9.55;;;3.35;;
49870;SDS011;35767;52.322;9.122;2024-01-30T20:21:48;3.25;;;3.05;;
49870;SDS011;35767;52.322;9.122;2024-01-30T20:24:49;4.13;;;3.83;;
49870;SDS011;35767;52.322;9.122;2024-01-30T20:27:59;3.92;;;3.63;;
49870;SDS011;35767;52.322;9.122;2024-01-30T20:31:02;4.10;;;3.80;;
49870;SDS011;35767;52.322;9.122;2024-01-30T20:34:04;4.15;;;3.63;;
49870;SDS011;35767;52.322;9.122;2024-01-30T20:37:06;4.15;;;3.80;;
49870;SDS011;35767;52.322;9.122;2024-01-30T20:40:08;4.50;;;3.92;;
49870;SDS011;35767;52.322;9.122;2024-01-30T20:43:10;6.00;;;3.88;;
49870;SDS011;35767;52.322;9.122;2024-01-30T20:49:14;6.82;;;3.92;;
49870;SDS011;35767;52.322;9.122;2024-01-30T20:52:17;4.88;;;4.38;;
49870;SDS011;35767;52.322;9.122;2024-01-30T20:55:19;4.85;;;4.35;;
49870;SDS011;35767;52.322;9.122;2024-01-30T20:58:21;5.00;;;4.43;;
49870;SDS011;35767;52.322;9.122;2024-01-30T21:01:23;5.05;;;4.65;;
49870;SDS011;35767;52.322;9.122;2024-01-30T21:04:25;8.05;;;6.85;;
49870;SDS011;35767;52.322;9.122;2024-01-30T21:07:27;5.75;;;5.25;;
49870;SDS011;35767;52.322;9.122;2024-01-30T21:10:29;5.95;;;5.35;;
49870;SDS011;35767;52.322;9.122;2024-01-30T21:13:31;5.60;;;5.10;;
49870;SDS011;35767;52.322;9.122;2024-01-30T21:16:34;6.38;;;5.80;;
49870;SDS011;35767;52.322;9.122;2024-01-30T21:19:36;8.93;;;5.43;;
49870;SDS011;35767;52.322;9.122;2024-01-30T21:22:38;5.68;;;5.18;;
49870;SDS011;35767;52.322;9.122;2024-01-30T21:25:39;5.97;;;5.38;;
49870;SDS011;35767;52.322;9.122;2024-01-30T21:28:41;5.50;;;4.63;;
49870;SDS011;35767;52.322;9.122;2024-01-30T21:34:46;6.25;;;5.40;;
49870;SDS011;35767;52.322;9.122;2024-01-30T21:37:48;7.13;;;5.30;;
49870;SDS011;35767;52.322;9.122;2024-01-30T21:40:50;5.90;;;5.40;;
49870;SDS011;35767;52.322;9.122;2024-01-30T21:43:51;5.63;;;5.07;;
49870;SDS011;35767;52.322;9.122;2024-01-30T21:46:55;7.38;;;5.88;;
49870;SDS011;35767;52.322;9.122;2024-01-30T21:49:56;6.45;;;5.85;;
49870;SDS011;35767;52.322;9.122;2024-01-30T21:52:58;5.80;;;5.30;;
49870;SDS011;35767;52.322;9.122;2024-01-30T21:55:59;6.47;;;5.30;;
49870;SDS011;35767;52.322;9.122;2024-01-30T21:59:01;6.47;;;5.88;;
49870;SDS011;35767;52.322;9.122;2024-01-30T22:02:04;10.23;;;6.40;;
49870;SDS011;35767;52.322;9.122;2024-01-30T22:05:06;6.82;;;6.13;;
49870;SDS011;35767;52.322;9.122;2024-01-30T22:08:08;7.25;;;6.55;;
49870;SDS011;35767;52.322;9.122;2024-01-30T22:11:09;4.55;;;4.15;;
49870;SDS011;35767;52.322;9.122;2024-01-30T22:14:11;4.90;;;3.65;;
49870;SDS011;35767;52.322;9.122;2024-01-30T22:17:14;3.42;;;3.13;;
49870;SDS011;35767;52.322;9.122;2024-01-30T22:20:15;3.17;;;2.88;;
49870;SDS011;35767;52.322;9.122;2024-01-30T22:23:17;2.80;;;2.60;;
49870;SDS011;35767;52.322;9.122;2024-01-30T22:26:19;4.50;;;4.10;;
49870;SDS011;35767;52.322;9.122;2024-01-30T22:29:20;4.05;;;3.70;;
49870;SDS011;35767;52.322;9.122;2024-01-30T22:32:23;4.13;;;3.70;;
49870;SDS011;35767;52.322;9.122;2024-01-30T22:35:26;3.83;;;3.40;;
49870;SDS011;35767;52.322;9.122;2024-01-30T22:38:27;4.28;;;3.88;;
49870;SDS011;35767;52.322;9.122;2024-01-30T22:41:29;4.50;;;4.10;;
49870;SDS011;35767;52.322;9.122;2024-01-30T22:44:31;4.28;;;3.88;;
49870;SDS011;35767;52.322;9.122;2024-01-30T22:47:34;4.38;;;3.60;;
49870;SDS011;35767;52.322;9.122;2024-01-30T22:50:36;5.70;;;3.60;;
49870;SDS011;35767;52.322;9.122;2024-01-30T22:53:37;4.00;;;2.75;;
49870;SDS011;35767;52.322;9.122;2024-01-30T22:56:39;6.50;;;3.22;;
49870;SDS011;35767;52.322;9.122;2024-01-30T22:59:40;3.85;;;2.80;;
49870;SDS011;35767;52.322;9.122;2024-01-30T23:02:44;3.75;;;3.33;;
49870;SDS011;35767;52.322;9.122;2024-01-30T23:05:46;3.50;;;3.08;;
49870;SDS011;35767;52.322;9.122;2024-01-30T23:08:47;3.20;;;2.95;;
49870;SDS011;35767;52.322;9.122;2024-01-30T23:11:49;3.30;;;3.00;;
49870;SDS011;35767;52.322;9.122;2024-01-30T23:14:51;3.55;;;3.25;;
49870;SDS011;35767;52.322;9.122;2024-01-30T23:17:53;3.35;;;3.05;;
49870;SDS011;35767;52.322;9.122;2024-01-30T23:20:55;3.20;;;2.95;;
49870;SDS011;35767;52.322;9.122;2024-01-30T23:23:57;3.90;;;3.42;;
49870;SDS011;35767;52.322;9.122;2024-01-30T23:26:58;6.90;;;3.55;;
49870;SDS011;35767;52.322;9.122;2024-01-30T23:30:00;3.33;;;3.03;;
49870;SDS011;35767;52.322;9.122;2024-01-30T23:33:03;3.83;;;3.45;;
49870;SDS011;35767;52.322;9.122;2024-01-30T23:36:05;5.93;;;3.55;;
49870;SDS011;35767;52.322;9.122;2024-01-30T23:39:07;3.67;;;2.83;;
49870;SDS011;35767;52.322;9.122;2024-01-30T23:42:10;3.40;;;3.10;;
49870;SDS011;35767;52.322;9.122;2024-01-30T23:45:11;5.70;;;3.20;;
49870;SDS011;35767;52.322;9.122;2024-01-30T23:48:14;2.47;;;2.28;;
49870;SDS011;35767;52.322;9.122;2024-01-30T23:51:16;2.85;;;2.50;;
49870;SDS011;35767;52.322;9.122;2024-01-30T23:54:17;2.67;;;2.47;;
49870;SDS011;35767;52.322;9.122;2024-01-30T23:57:19;6.05;;;2.35;;
